Time;durP1;ratioP1;P1;durP2;ratioP2;P2;SDS_P1;SDS_P2;PMS_P1;PMS_P2;Temp;Humidity;BMP_temperature;BMP_pressure;BME280_temperature;BME280_humidity;BME280_pressure;Samples;Min_cycle;Max_cycle;Signal;HPM_P1;HPM_P2
2023/11/16 00:00:58;;;;;;;17.17;3.45;;;6.50;99.90;;;;;;6243636;23;20024;-82
2023/11/16 00:03:45;;;;;;;10.45;3.05;;;6.40;99.90;;;;;;6242933;23;20141;-81
2023/11/16 00:06:33;;;;;;;12.90;3.42;;;6.40;99.90;;;;;;6243824;23;20367;-79
2023/11/16 00:09:21;;;;;;;12.23;3.33;;;6.30;99.90;;;;;;6221733;23;20035;-80
2023/11/16 00:12:11;;;;;;;12.18;3.97;;;6.30;99.90;;;;;;6245309;23;20095;-82
2023/11/16 00:14:59;;;;;;;11.15;3.03;;;6.20;99.90;;;;;;6250882;23;20427;-82
2023/11/16 00:17:48;;;;;;;13.10;3.53;;;6.20;99.90;;;;;;6255114;23;20034;-81
2023/11/16 00:20:38;;;;;;;11.15;3.42;;;6.10;99.90;;;;;;6243234;23;20039;-83
2023/11/16 00:23:25;;;;;;;16.10;3.85;;;6.10;99.90;;;;;;6242606;23;20028;-81
2023/11/16 00:26:14;;;;;;;10.57;2.92;;;6.10;99.90;;;;;;6243226;23;20086;-82
2023/11/16 00:29:01;;;;;;;14.75;3.28;;;6.00;99.90;;;;;;6242180;23;20035;-81
2023/11/16 00:31:49;;;;;;;11.70;2.70;;;6.00;99.90;;;;;;6245216;23;20082;-81
2023/11/16 00:34:36;;;;;;;13.85;2.90;;;6.10;99.90;;;;;;6244223;23;20035;-82
2023/11/16 00:37:24;;;;;;;17.38;3.42;;;6.10;99.90;;;;;;6243699;23;20027;-82
2023/11/16 00:40:13;;;;;;;10.68;3.38;;;6.10;99.90;;;;;;6245898;23;20111;-82
2023/11/16 00:43:00;;;;;;;14.73;3.55;;;6.10;99.90;;;;;;6245286;23;20307;-83
2023/11/16 00:45:50;;;;;;;12.35;3.28;;;6.10;99.90;;;;;;6245462;23;20039;-78
2023/11/16 00:48:42;;;;;;;14.93;3.90;;;6.10;99.90;;;;;;6248149;23;20024;-82
2023/11/16 00:51:30;;;;;;;10.80;2.70;;;6.10;99.90;;;;;;6247631;23;20031;-82
2023/11/16 00:54:18;;;;;;;12.88;3.40;;;6.00;99.90;;;;;;6243765;23;20058;-81
2023/11/16 00:57:09;;;;;;;14.30;3.20;;;6.00;99.90;;;;;;6243903;23;20035;-80
2023/11/16 00:59:59;;;;;;;7.15;3.42;;;6.00;99.90;;;;;;6244498;23;20039;-82
2023/11/16 01:02:49;;;;;;;11.88;3.30;;;6.10;99.90;;;;;;6244002;23;20028;-81
2023/11/16 01:05:36;;;;;;;10.07;3.75;;;6.10;99.90;;;;;;6245444;23;20028;-80
2023/11/16 01:08:29;;;;;;;11.52;3.40;;;6.20;99.90;;;;;;6242452;23;20035;-82
2023/11/16 01:11:22;;;;;;;8.32;3.10;;;6.20;99.90;;;;;;6225182;23;20020;-82
2023/11/16 01:14:10;;;;;;;7.15;3.42;;;6.20;99.90;;;;;;6223614;23;20024;-82
2023/11/16 01:17:03;;;;;;;13.23;3.47;;;6.20;99.90;;;;;;6244087;23;20143;-81
2023/11/16 01:19:56;;;;;;;13.65;3.20;;;6.30;99.90;;;;;;6223057;23;20315;-81
2023/11/16 01:22:50;;;;;;;18.15;3.25;;;6.30;99.90;;;;;;6244135;23;20024;-82
2023/11/16 01:25:41;;;;;;;12.02;3.35;;;6.30;99.90;;;;;;6244221;23;20032;-82
2023/11/16 01:28:31;;;;;;;14.02;3.10;;;6.40;99.90;;;;;;6222904;23;20051;-83
2023/11/16 01:31:19;;;;;;;10.30;3.38;;;6.30;99.90;;;;;;6222712;23;20444;-80
2023/11/16 01:34:10;;;;;;;11.48;3.00;;;6.30;99.90;;;;;;6243488;23;20024;-82
2023/11/16 01:36:57;;;;;;;15.38;3.28;;;6.40;99.90;;;;;;6245090;23;20031;-81
2023/11/16 01:39:44;;;;;;;9.27;3.30;;;6.40;99.90;;;;;;6243400;23;20441;-80
2023/11/16 01:42:31;;;;;;;9.40;2.78;;;6.40;99.90;;;;;;6243311;23;20284;-82
2023/11/16 01:45:29;;;;;;;9.55;3.08;;;6.40;99.90;;;;;;6225859;23;20047;-80
2023/11/16 01:48:25;;;;;;;15.13;2.95;;;6.40;99.90;;;;;;6245418;23;20355;-82
2023/11/16 01:51:15;;;;;;;13.40;4.15;;;6.40;99.90;;;;;;6223075;23;20099;-82
2023/11/16 01:54:05;;;;;;;13.07;2.78;;;6.50;99.90;;;;;;6243680;23;20082;-80
2023/11/16 01:56:53;;;;;;;11.82;2.67;;;6.40;99.90;;;;;;6225037;23;20113;-81
2023/11/16 01:59:43;;;;;;;11.18;3.00;;;6.40;99.90;;;;;;6222017;23;20099;-81
2023/11/16 02:02:31;;;;;;;11.32;2.83;;;6.40;99.90;;;;;;6241618;23;20028;-81
2023/11/16 02:05:19;;;;;;;14.13;3.00;;;6.40;99.90;;;;;;6243159;23;20084;-81
2023/11/16 02:08:11;;;;;;;7.28;3.55;;;6.30;99.90;;;;;;6222868;23;20369;-82
2023/11/16 02:10:59;;;;;;;15.30;3.38;;;6.30;99.90;;;;;;6244714;23;20020;-82
2023/11/16 02:13:49;;;;;;;8.35;2.80;;;6.20;99.90;;;;;;6244337;23;20465;-82
2023/11/16 02:16:39;;;;;;;12.65;3.10;;;6.20;99.90;;;;;;6242792;23;20034;-81
2023/11/16 02:19:30;;;;;;;14.38;3.25;;;6.20;99.90;;;;;;6243718;23;20028;-81
2023/11/16 02:22:22;;;;;;;12.82;3.45;;;6.10;99.90;;;;;;6242108;23;20028;-79
2023/11/16 02:25:13;;;;;;;10.73;2.78;;;6.00;99.90;;;;;;6246710;23;20035;-77
2023/11/16 02:28:00;;;;;;;11.35;2.72;;;6.10;99.90;;;;;;6236551;23;20426;-81
2023/11/16 02:30:48;;;;;;;12.73;3.42;;;6.10;99.90;;;;;;6263266;23;20012;-79
2023/11/16 02:33:35;;;;;;;18.23;3.72;;;6.20;99.90;;;;;;6270965;22;20024;-82
2023/11/16 02:36:22;;;;;;;9.05;3.17;;;6.20;99.90;;;;;;6226159;23;20020;-83
2023/11/16 02:39:15;;;;;;;13.63;3.40;;;6.30;99.90;;;;;;6248073;23;20028;-81
2023/11/16 02:42:03;;;;;;;;;;;6.30;99.90;;;;;;6245598;23;20051;-82
2023/11/16 02:44:57;;;;;;;15.20;3.55;;;6.30;99.90;;;;;;6247391;23;19915;-82
2023/11/16 02:47:48;;;;;;;13.50;3.10;;;6.30;99.90;;;;;;6244795;23;20027;-82
2023/11/16 02:50:35;;;;;;;13.93;3.58;;;6.30;99.90;;;;;;6221922;23;20162;-80
2023/11/16 02:53:23;;;;;;;8.40;2.58;;;6.30;99.90;;;;;;6243199;23;20139;-80
2023/11/16 02:56:13;;;;;;;6.57;2.83;;;6.30;99.90;;;;;;6243306;23;20031;-82
2023/11/16 02:59:01;;;;;;;9.43;2.67;;;6.40;99.90;;;;;;6244303;23;20028;-80
2023/11/16 03:01:49;;;;;;;12.75;2.75;;;6.40;99.90;;;;;;6242754;23;20122;-80
2023/11/16 03:04:36;;;;;;;8.15;2.97;;;6.40;99.90;;;;;;6243663;23;20392;-79
2023/11/16 03:07:23;;;;;;;13.88;3.30;;;6.50;99.90;;;;;;6242582;23;20103;-81
2023/11/16 03:10:20;;;;;;;9.02;3.30;;;6.50;99.90;;;;;;6242158;23;20020;-80
2023/11/16 03:13:07;;;;;;;9.50;2.72;;;6.50;99.90;;;;;;6221905;23;20031;-80
2023/11/16 03:15:54;;;;;;;8.73;3.75;;;6.50;99.90;;;;;;6241701;23;20016;-81
2023/11/16 03:18:41;;;;;;;9.32;2.83;;;6.50;99.90;;;;;;6241463;23;20130;-81
2023/11/16 03:21:28;;;;;;;16.83;3.03;;;6.60;99.90;;;;;;6245019;23;20058;-77
2023/11/16 03:24:19;;;;;;;16.33;3.22;;;6.50;99.90;;;;;;6243031;23;20426;-81
2023/11/16 03:27:09;;;;;;;10.82;2.70;;;6.50;99.90;;;;;;6242894;23;20028;-81
2023/11/16 03:29:56;;;;;;;12.40;3.25;;;6.50;99.90;;;;;;6222470;23;20024;-82
2023/11/16 03:32:46;;;;;;;9.65;3.10;;;6.40;99.90;;;;;;6222149;23;20410;-82
2023/11/16 03:35:33;;;;;;;13.95;3.25;;;6.40;99.90;;;;;;6241490;23;20034;-82
2023/11/16 03:38:23;;;;;;;19.08;3.33;;;6.40;99.90;;;;;;6221172;23;20016;-81
2023/11/16 03:41:11;;;;;;;10.13;3.47;;;6.40;99.90;;;;;;6243890;23;20128;-82
2023/11/16 03:43:58;;;;;;;14.93;3.42;;;6.30;99.90;;;;;;6242064;23;20314;-80
2023/11/16 03:46:50;;;;;;;17.55;4.55;;;6.20;99.90;;;;;;6242097;23;20024;-77
2023/11/16 03:49:37;;;;;;;19.55;3.72;;;6.20;99.90;;;;;;6244617;23;20020;-82
2023/11/16 03:52:24;;;;;;;10.23;3.25;;;6.20;99.90;;;;;;6241418;23;20263;-82
2023/11/16 03:55:12;;;;;;;12.73;3.95;;;6.10;99.90;;;;;;6242637;23;20303;-81
2023/11/16 03:58:03;;;;;;;11.80;3.72;;;6.10;99.90;;;;;;6222164;23;20378;-82
2023/11/16 04:00:50;;;;;;;13.85;4.05;;;6.00;99.90;;;;;;6224907;23;20038;-77
2023/11/16 04:03:37;;;;;;;9.43;3.85;;;5.90;99.90;;;;;;6223670;23;20028;-82
2023/11/16 04:06:25;;;;;;;15.35;4.10;;;6.00;99.90;;;;;;6244789;23;20035;-82
2023/11/16 04:09:12;;;;;;;14.32;3.30;;;5.90;99.90;;;;;;6244786;23;20099;-78
2023/11/16 04:12:00;;;;;;;17.23;4.25;;;5.90;99.90;;;;;;6249942;23;20039;-79
2023/11/16 04:14:47;;;;;;;11.93;3.42;;;5.90;99.90;;;;;;6245029;23;20024;-79
2023/11/16 04:17:34;;;;;;;14.52;3.90;;;5.90;99.90;;;;;;6243036;23;20062;-81
2023/11/16 04:20:23;;;;;;;15.55;3.80;;;5.90;99.90;;;;;;6243128;23;20024;-81
2023/11/16 04:23:10;;;;;;;12.55;3.78;;;5.90;99.90;;;;;;6243787;23;20514;-81
2023/11/16 04:25:58;;;;;;;16.25;4.28;;;5.90;99.90;;;;;;6223974;23;20024;-81
2023/11/16 04:28:47;;;;;;;16.40;3.58;;;6.00;99.90;;;;;;6223081;23;20038;-82
2023/11/16 04:31:35;;;;;;;7.53;3.28;;;6.00;99.90;;;;;;6244132;23;20036;-82
2023/11/16 04:34:22;;;;;;;11.30;3.33;;;6.00;99.90;;;;;;6244347;23;20027;-82
2023/11/16 04:37:10;;;;;;;15.52;3.88;;;6.00;99.90;;;;;;6243996;23;20024;-82
2023/11/16 04:39:58;;;;;;;18.23;3.83;;;6.00;99.90;;;;;;6245394;23;20634;-81
2023/11/16 04:42:47;;;;;;;15.68;5.05;;;6.00;99.90;;;;;;6245789;23;20085;-78
2023/11/16 04:45:34;;;;;;;14.07;4.35;;;6.00;99.90;;;;;;6246600;23;20110;-78
2023/11/16 04:48:24;;;;;;;12.50;3.60;;;6.00;99.90;;;;;;6245154;23;20076;-82
2023/11/16 04:51:12;;;;;;;13.05;3.45;;;6.10;99.90;;;;;;6246701;23;20065;-82
2023/11/16 04:54:00;;;;;;;16.77;3.70;;;6.20;99.90;;;;;;6244798;23;20392;-82
2023/11/16 04:56:47;;;;;;;12.45;3.38;;;6.30;99.90;;;;;;6242528;23;20016;-82
2023/11/16 04:59:34;;;;;;;12.50;2.92;;;6.30;99.90;;;;;;6243363;23;20035;-83
2023/11/16 05:02:26;;;;;;;16.80;3.40;;;6.40;99.90;;;;;;6243059;23;20028;-82
2023/11/16 05:05:13;;;;;;;10.40;3.83;;;6.40;99.90;;;;;;6244656;23;20035;-82
2023/11/16 05:08:01;;;;;;;11.10;3.33;;;6.40;99.90;;;;;;6242635;23;20103;-83
2023/11/16 05:10:52;;;;;;;12.90;3.53;;;6.40;99.90;;;;;;6242236;23;20291;-81
2023/11/16 05:13:39;;;;;;;12.65;3.28;;;6.30;99.90;;;;;;6242816;23;20031;-82
2023/11/16 05:16:27;;;;;;;7.32;3.30;;;6.20;99.90;;;;;;6242765;23;20030;-82
2023/11/16 05:19:15;;;;;;;18.55;3.63;;;6.10;99.90;;;;;;6244657;23;20040;-82
2023/11/16 05:22:05;;;;;;;11.45;3.45;;;6.00;99.90;;;;;;6243374;23;20166;-83
2023/11/16 05:24:52;;;;;;;12.70;3.22;;;5.90;99.90;;;;;;6245825;23;20449;-78
2023/11/16 05:27:39;;;;;;;13.65;3.35;;;5.90;99.90;;;;;;6244993;23;20024;-82
2023/11/16 05:30:26;;;;;;;7.65;3.15;;;5.80;99.90;;;;;;6244824;23;20020;-82
2023/11/16 05:33:14;;;;;;;8.15;4.00;;;5.80;99.90;;;;;;6248423;23;20046;-80
2023/11/16 05:36:01;;;;;;;11.35;4.10;;;5.90;99.90;;;;;;6254184;23;20025;-81
2023/11/16 05:38:49;;;;;;;17.13;3.47;;;5.90;99.90;;;;;;6258754;23;20020;-81
2023/11/16 05:41:37;;;;;;;16.38;3.38;;;5.90;99.90;;;;;;6255585;23;20449;-81
2023/11/16 05:44:24;;;;;;;14.98;3.03;;;5.90;99.90;;;;;;6263411;22;20058;-82
2023/11/16 05:47:11;;;;;;;25.23;4.53;;;5.90;99.90;;;;;;6243537;23;20024;-80
2023/11/16 05:49:59;;;;;;;14.70;3.75;;;5.90;99.90;;;;;;6247180;23;20071;-81
2023/11/16 05:52:46;;;;;;;10.18;3.45;;;5.90;99.90;;;;;;6265452;23;20020;-81
2023/11/16 05:55:34;;;;;;;11.07;4.03;;;5.90;99.90;;;;;;6262244;23;20044;-81
2023/11/16 05:58:21;;;;;;;10.65;3.63;;;5.90;99.90;;;;;;6259836;23;20040;-76
2023/11/16 06:01:13;;;;;;;17.90;5.13;;;5.90;99.90;;;;;;6260470;23;20028;-78
2023/11/16 06:04:03;;;;;;;11.02;4.18;;;5.90;99.90;;;;;;6250312;23;20028;-82
2023/11/16 06:06:53;;;;;;;13.52;3.50;;;5.90;99.90;;;;;;6243664;23;20079;-80
2023/11/16 06:09:40;;;;;;;10.85;4.15;;;5.90;99.90;;;;;;6245304;23;20020;-80
2023/11/16 06:12:27;;;;;;;9.90;4.05;;;5.90;99.90;;;;;;6244333;23;20047;-79
2023/11/16 06:15:15;;;;;;;22.40;4.85;;;5.90;99.90;;;;;;6245294;23;20034;-81
2023/11/16 06:18:05;;;;;;;18.90;4.53;;;5.90;99.90;;;;;;6244477;23;20411;-81
2023/11/16 06:20:53;;;;;;;12.75;3.65;;;5.80;99.90;;;;;;6243479;23;20020;-81
2023/11/16 06:23:43;;;;;;;11.50;3.80;;;5.80;99.90;;;;;;6243624;23;20086;-82
2023/11/16 06:26:31;;;;;;;13.00;4.60;;;5.80;99.90;;;;;;6244073;23;20024;-83
2023/11/16 06:29:18;;;;;;;9.82;3.63;;;5.70;99.90;;;;;;6220994;23;20035;-82
2023/11/16 06:32:07;;;;;;;11.32;4.45;;;5.70;99.90;;;;;;6242396;23;20089;-78
2023/11/16 06:34:56;;;;;;;16.17;5.00;;;5.80;99.90;;;;;;6223823;23;20378;-82
2023/11/16 06:37:43;;;;;;;13.30;4.97;;;5.80;99.90;;;;;;6244077;23;20024;-79
2023/11/16 06:40:31;;;;;;;13.43;6.00;;;5.70;99.90;;;;;;6243681;22;20020;-83
2023/11/16 06:43:23;;;;;;;13.98;6.63;;;5.70;99.90;;;;;;6241931;23;20035;-82
2023/11/16 06:46:12;;;;;;;10.20;5.10;;;5.70;99.90;;;;;;6212980;22;20372;-80
2023/11/16 06:49:01;;;;;;;15.48;6.18;;;5.70;99.90;;;;;;6212282;23;20024;-82
2023/11/16 06:51:49;;;;;;;13.80;7.78;;;5.70;99.90;;;;;;6190043;23;20095;-79
2023/11/16 06:54:41;;;;;;;11.70;6.03;;;5.70;99.90;;;;;;6215878;23;20635;-82
2023/11/16 06:57:29;;;;;;;13.90;5.80;;;5.70;99.90;;;;;;6212987;23;20388;-80
2023/11/16 07:00:21;;;;;;;21.15;7.82;;;5.70;99.90;;;;;;6211779;23;20415;-80
2023/11/16 07:03:09;;;;;;;17.15;5.40;;;5.80;99.90;;;;;;6209561;23;20029;-82
2023/11/16 07:05:57;;;;;;;21.50;4.55;;;5.80;99.90;;;;;;6233398;22;20110;-82
2023/11/16 07:08:46;;;;;;;13.68;4.20;;;5.90;99.90;;;;;;6243831;23;20030;-78
2023/11/16 07:11:38;;;;;;;10.70;3.90;;;5.90;99.90;;;;;;6242192;23;20173;-80
2023/11/16 07:14:28;;;;;;;7.20;4.32;;;6.00;99.90;;;;;;6244337;23;20338;-82
2023/11/16 07:17:37;;;;;;;10.18;4.30;;;6.00;99.90;;;;;;6241822;23;20026;-81
2023/11/16 07:20:25;;;;;;;8.50;4.03;;;6.00;99.90;;;;;;6244627;23;20035;-81
2023/11/16 07:23:13;;;;;;;19.48;4.38;;;6.00;99.90;;;;;;6244768;23;20062;-82
2023/11/16 07:26:02;;;;;;;8.93;3.78;;;6.00;99.90;;;;;;6243211;23;20023;-82
2023/11/16 07:28:50;;;;;;;12.88;4.88;;;6.10;99.90;;;;;;6244555;23;20035;-80
2023/11/16 07:31:40;;;;;;;10.98;4.93;;;6.10;99.90;;;;;;6243350;23;20085;-81
2023/11/16 07:34:29;;;;;;;11.02;4.65;;;6.10;99.90;;;;;;6243500;23;20028;-81
2023/11/16 07:37:16;;;;;;;12.15;3.80;;;6.10;99.90;;;;;;6221776;23;20031;-82
2023/11/16 07:40:07;;;;;;;9.68;3.67;;;6.10;99.90;;;;;;6243590;23;20039;-82
2023/11/16 07:42:54;;;;;;;13.77;4.22;;;6.20;99.90;;;;;;6242867;23;20127;-82
2023/11/16 07:45:44;;;;;;;13.63;3.03;;;6.30;99.90;;;;;;6243651;23;20039;-78
2023/11/16 07:48:34;;;;;;;8.27;2.70;;;6.40;99.90;;;;;;6244243;23;20478;-80
2023/11/16 07:51:24;;;;;;;9.02;3.00;;;6.50;99.90;;;;;;6244470;23;20100;-81
2023/11/16 07:54:15;;;;;;;14.23;4.82;;;6.50;99.90;;;;;;6245005;23;20035;-82
2023/11/16 07:57:04;;;;;;;10.43;3.00;;;6.60;99.90;;;;;;6243419;23;20024;-81
2023/11/16 07:59:59;;;;;;;17.00;3.70;;;6.60;99.90;;;;;;6242837;23;20032;-82
2023/11/16 08:05:55;;;;;;;16.52;3.20;;;6.60;99.90;;;;;;6244518;22;20030;-82
2023/11/16 08:08:45;;;;;;;11.40;3.38;;;6.70;99.90;;;;;;6244339;23;20048;-82
2023/11/16 08:11:35;;;;;;;6.50;2.90;;;6.70;99.90;;;;;;6242221;23;20052;-81
2023/11/16 08:14:25;;;;;;;10.93;2.97;;;6.80;99.90;;;;;;6242823;23;20039;-82
2023/11/16 08:17:16;;;;;;;11.30;3.20;;;6.80;99.90;;;;;;6244232;23;20035;-81
2023/11/16 08:20:04;;;;;;;12.07;3.03;;;6.80;99.90;;;;;;6243600;23;20035;-82
2023/11/16 08:22:56;;;;;;;11.82;2.75;;;6.90;99.90;;;;;;6223859;22;20027;-82
2023/11/16 08:25:50;;;;;;;9.20;2.67;;;6.90;96.80;;;;;;6220026;23;20053;-81
2023/11/16 08:28:49;;;;;;;6.07;2.55;;;7.00;61.20;;;;;;6229832;23;20038;-82
2023/11/16 08:31:39;;;;;;;13.48;3.08;;;7.00;24.20;;;;;;6266234;23;20024;-81
2023/11/16 08:34:29;;;;;;;16.58;3.30;;;7.10;1.00;;;;;;6266688;23;20028;-81
2023/11/16 08:37:19;;;;;;;10.57;3.50;;;7.10;1.00;;;;;;6234397;23;20020;-83
2023/11/16 08:40:09;;;;;;;9.60;2.42;;;7.20;1.00;;;;;;6253343;23;20031;-80
2023/11/16 08:43:01;;;;;;;8.05;2.60;;;7.20;1.00;;;;;;6233292;23;20020;-81
2023/11/16 08:45:51;;;;;;;9.10;2.60;;;7.20;1.00;;;;;;6243551;23;20020;-79
2023/11/16 08:48:43;;;;;;;7.18;2.70;;;7.20;1.00;;;;;;6246183;23;20024;-82
2023/11/16 08:51:33;;;;;;;8.75;2.92;;;7.20;99.90;;;;;;6247469;23;20089;-82
2023/11/16 08:54:23;;;;;;;15.63;3.90;;;7.20;99.90;;;;;;6248086;23;20024;-81
2023/11/16 08:57:11;;;;;;;4.95;2.22;;;7.30;99.90;;;;;;6246063;23;20031;-79
2023/11/16 09:00:27;;;;;;;10.70;3.92;;;7.30;99.90;;;;;;6247320;23;20024;-82
2023/11/16 09:03:08;;;;;;;10.07;2.90;;;7.40;99.90;;;;;;6246150;23;20158;-78
2023/11/16 09:06:02;;;;;;;13.77;3.55;;;7.40;63.40;;;;;;6223208;23;20123;-80
2023/11/16 09:08:53;;;;;;;10.82;3.20;;;7.40;1.00;;;;;;6244072;23;20047;-80
2023/11/16 09:11:46;;;;;;;11.88;3.05;;;7.40;1.00;;;;;;6245625;23;20107;-80
2023/11/16 09:14:34;;;;;;;14.55;3.45;;;7.40;1.00;;;;;;6241204;23;20028;-81
2023/11/16 09:17:23;;;;;;;9.10;2.83;;;7.40;1.00;;;;;;6244940;23;20024;-81
2023/11/16 09:20:12;;;;;;;10.07;2.90;;;7.40;1.00;;;;;;6221084;23;20094;-81
2023/11/16 09:23:00;;;;;;;12.55;3.05;;;7.50;1.00;;;;;;6244909;23;20058;-82
2023/11/16 09:25:47;;;;;;;11.57;3.63;;;7.50;99.90;;;;;;6244683;23;20024;-81
2023/11/16 09:28:38;;;;;;;8.85;2.92;;;7.50;99.90;;;;;;6243210;23;20024;-81
2023/11/16 09:31:26;;;;;;;12.75;4.15;;;7.50;99.90;;;;;;6243329;23;20693;-80
2023/11/16 09:34:16;;;;;;;10.95;3.40;;;7.50;99.90;;;;;;6245068;23;20028;-82
2023/11/16 09:37:04;;;;;;;8.45;3.58;;;7.60;34.80;;;;;;6223147;23;20023;-77
2023/11/16 09:39:52;;;;;;;8.23;3.28;;;7.60;1.00;;;;;;6221833;23;20035;-80
2023/11/16 09:42:44;;;;;;;7.28;2.70;;;7.60;99.90;;;;;;6246089;23;20031;-78
2023/11/16 09:45:31;;;;;;;6.80;2.97;;;7.60;99.90;;;;;;6247812;23;20025;-77
2023/11/16 09:48:22;;;;;;;9.82;2.95;;;7.60;99.90;;;;;;6246336;23;20024;-80
2023/11/16 09:51:10;;;;;;;9.85;3.15;;;7.60;99.90;;;;;;6244191;23;20024;-81
2023/11/16 09:53:59;;;;;;;8.45;2.55;;;7.70;1.00;;;;;;6243882;23;20396;-81
2023/11/16 09:56:48;;;;;;;8.65;2.65;;;7.70;99.90;;;;;;6242289;23;20035;-81
2023/11/16 09:59:42;;;;;;;18.40;3.00;;;7.70;99.90;;;;;;6244663;23;20109;-81
2023/11/16 10:02:33;;;;;;;23.33;11.95;;;7.70;99.90;;;;;;6243805;23;20103;-81
2023/11/16 10:05:27;;;;;;;14.07;4.93;;;7.70;97.00;;;;;;6244239;23;20047;-80
2023/11/16 10:08:14;;;;;;;12.57;3.00;;;7.70;8.60;;;;;;6242881;23;20069;-77
2023/11/16 10:11:06;;;;;;;13.40;2.42;;;7.70;1.00;;;;;;6245195;23;20024;-80
2023/11/16 10:13:56;;;;;;;8.23;2.67;;;7.80;1.00;;;;;;6221244;23;20410;-79
2023/11/16 10:16:43;;;;;;;13.77;2.72;;;7.70;1.00;;;;;;6244750;23;20350;-81
2023/11/16 10:19:31;;;;;;;7.40;2.35;;;7.80;99.90;;;;;;6219767;23;20421;-81
2023/11/16 10:22:18;;;;;;;4.50;2.35;;;7.80;99.90;;;;;;6245065;23;20052;-82
2023/11/16 10:25:10;;;;;;;9.80;2.45;;;7.80;99.90;;;;;;6243749;23;20024;-80
2023/11/16 10:28:00;;;;;;;12.90;2.90;;;7.90;99.90;;;;;;6245507;23;20447;-78
2023/11/16 10:30:54;;;;;;;8.27;2.83;;;7.80;99.90;;;;;;6244200;23;20085;-81
2023/11/16 10:33:45;;;;;;;7.18;2.58;;;7.70;99.90;;;;;;6243661;23;20166;-80
2023/11/16 10:36:37;;;;;;;10.07;2.55;;;7.70;99.90;;;;;;6244231;23;20052;-78
2023/11/16 10:39:27;;;;;;;10.70;2.95;;;7.70;99.90;;;;;;6246583;23;20020;-77
2023/11/16 10:42:20;;;;;;;10.18;2.97;;;7.70;99.90;;;;;;6245640;23;20039;-78
2023/11/16 10:45:15;;;;;;;12.27;2.47;;;7.70;99.90;;;;;;6243424;23;20046;-81
2023/11/16 10:48:03;;;;;;;10.88;2.75;;;7.70;99.90;;;;;;6243881;23;20034;-80
2023/11/16 10:50:55;;;;;;;5.45;2.55;;;7.80;87.90;;;;;;6253142;23;20403;-80
2023/11/16 10:53:44;;;;;;;10.15;2.95;;;7.80;1.00;;;;;;6243031;23;20024;-81
2023/11/16 10:56:34;;;;;;;8.63;2.42;;;7.80;1.00;;;;;;6221677;23;20298;-81
2023/11/16 10:59:27;;;;;;;9.70;2.42;;;7.80;74.20;;;;;;6243394;23;20024;-81
2023/11/16 11:02:17;;;;;;;10.73;2.25;;;7.90;27.10;;;;;;6244144;23;20032;-78
2023/11/16 11:05:11;;;;;;;9.32;2.97;;;8.00;81.30;;;;;;6242532;23;20054;-81
2023/11/16 11:08:07;;;;;;;7.55;2.28;;;8.00;1.00;;;;;;6220420;23;20028;-81
2023/11/16 11:10:58;;;;;;;14.98;3.83;;;8.00;99.90;;;;;;6242386;23;20031;-81
2023/11/16 11:13:51;;;;;;;8.10;2.55;;;8.10;99.90;;;;;;6242331;23;20024;-80
2023/11/16 11:16:40;;;;;;;9.43;2.42;;;8.20;99.90;;;;;;6242381;23;20020;-82
2023/11/16 11:19:31;;;;;;;6.57;2.15;;;8.30;13.00;;;;;;6220697;23;20028;-79
2023/11/16 11:22:18;;;;;;;10.93;2.17;;;8.50;1.00;;;;;;6242750;23;20056;-83
2023/11/16 11:25:07;;;;;;;10.68;1.77;;;8.70;99.90;;;;;;6244359;23;20326;-79
2023/11/16 11:28:00;;;;;;;10.57;2.08;;;8.80;1.00;;;;;;6222812;23;20115;-82
2023/11/16 11:31:04;;;;;;;7.75;2.67;;;8.90;99.90;;;;;;6244324;23;20034;-83
2023/11/16 11:33:54;;;;;;;9.82;2.42;;;8.90;99.90;;;;;;6242789;23;20292;-81
2023/11/16 11:36:44;;;;;;;5.68;1.95;;;8.80;99.90;;;;;;6221047;23;20655;-77
2023/11/16 11:39:40;;;;;;;7.60;2.17;;;8.80;4.50;;;;;;6244904;22;20020;-76
2023/11/16 11:42:37;;;;;;;5.50;1.92;;;8.80;1.00;;;;;;6244524;23;20028;-78
2023/11/16 11:45:30;;;;;;;8.30;2.15;;;8.80;1.00;;;;;;6246284;23;20043;-79
2023/11/16 11:48:22;;;;;;;9.20;2.33;;;8.80;1.00;;;;;;6245070;23;20027;-82
2023/11/16 11:51:14;;;;;;;13.15;2.80;;;8.70;1.00;;;;;;6246254;23;20024;-82
2023/11/16 11:54:01;;;;;;;8.77;2.47;;;8.70;1.00;;;;;;6219630;23;20020;-82
2023/11/16 11:56:48;;;;;;;11.00;2.47;;;8.70;1.00;;;;;;6243874;23;20051;-82
2023/11/16 11:59:38;;;;;;;7.70;2.47;;;8.50;1.00;;;;;;6218953;23;20415;-81
2023/11/16 12:02:25;;;;;;;12.15;2.78;;;8.40;1.00;;;;;;6225149;22;20031;-81
2023/11/16 12:05:17;;;;;;;9.57;2.88;;;8.40;80.80;;;;;;6242769;23;20421;-81
2023/11/16 12:08:05;;;;;;;14.60;3.40;;;8.40;99.90;;;;;;6244109;23;20099;-80
2023/11/16 12:10:55;;;;;;;21.02;8.20;;;8.30;99.90;;;;;;6244644;23;20031;-82
2023/11/16 12:13:43;;;;;;;15.52;5.07;;;8.30;99.90;;;;;;6243758;23;20396;-83
2023/11/16 12:16:32;;;;;;;8.23;3.58;;;8.20;99.90;;;;;;6243973;23;20139;-82
2023/11/16 12:19:22;;;;;;;9.05;2.72;;;8.30;99.90;;;;;;6220146;23;20032;-81
2023/11/16 12:22:11;;;;;;;11.15;4.88;;;8.40;99.90;;;;;;6241086;23;20048;-80
2023/11/16 12:24:59;;;;;;;22.63;9.80;;;8.40;99.90;;;;;;6244845;23;20462;-82
2023/11/16 12:27:53;;;;;;;14.45;4.80;;;8.40;99.90;;;;;;6222743;23;20024;-80
2023/11/16 12:30:40;;;;;;;10.07;4.40;;;8.30;99.90;;;;;;6248424;23;20472;-82
2023/11/16 12:33:33;;;;;;;11.02;3.13;;;8.20;99.90;;;;;;6225519;23;20059;-82
2023/11/16 12:36:25;;;;;;;7.63;2.50;;;8.10;99.90;;;;;;6248528;23;20399;-82
2023/11/16 12:39:13;;;;;;;8.52;3.28;;;8.10;99.90;;;;;;6248193;23;20109;-79
2023/11/16 12:42:08;;;;;;;11.00;5.47;;;8.00;99.90;;;;;;6227336;23;20039;-82
2023/11/16 12:44:58;;;;;;;9.98;3.70;;;8.00;10.80;;;;;;6248880;23;20425;-82
2023/11/16 12:47:46;;;;;;;14.82;6.25;;;8.00;99.90;;;;;;6221575;23;20042;-82
2023/11/16 12:50:37;;;;;;;15.43;4.18;;;7.90;22.40;;;;;;6245434;23;20024;-83
2023/11/16 12:53:25;;;;;;;9.27;3.47;;;7.80;99.90;;;;;;6222502;23;20024;-79
2023/11/16 12:56:17;;;;;;;18.08;5.18;;;7.70;99.60;;;;;;6245468;23;20149;-82
2023/11/16 12:59:06;;;;;;;9.93;4.43;;;7.70;1.00;;;;;;6244682;23;20051;-82
2023/11/16 13:01:59;;;;;;;16.23;4.63;;;7.60;99.90;;;;;;6225419;22;20034;-82
2023/11/16 13:04:46;;;;;;;10.23;3.75;;;7.50;99.90;;;;;;6244827;23;20031;-82
2023/11/16 13:07:34;;;;;;;19.73;7.80;;;7.40;1.00;;;;;;6243104;23;20411;-81
2023/11/16 13:10:22;;;;;;;10.13;3.22;;;7.40;19.20;;;;;;6243323;23;20024;-78
2023/11/16 13:13:12;;;;;;;5.53;3.00;;;7.20;67.50;;;;;;6241871;23;20052;-82
2023/11/16 13:15:59;;;;;;;5.78;2.60;;;6.90;1.00;;;;;;6246499;23;20025;-81
2023/11/16 13:18:52;;;;;;;8.10;2.40;;;6.80;14.40;;;;;;6244036;23;20050;-82
2023/11/16 13:21:39;;;;;;;12.10;3.58;;;6.70;1.00;;;;;;6246306;23;20058;-82
2023/11/16 13:24:27;;;;;;;8.85;3.65;;;6.70;87.60;;;;;;6223830;23;20107;-81
2023/11/16 13:27:15;;;;;;;13.95;4.45;;;6.60;99.90;;;;;;6248450;23;20120;-81
2023/11/16 13:30:03;;;;;;;8.35;3.78;;;6.70;99.90;;;;;;6246746;23;20455;-82
2023/11/16 13:32:53;;;;;;;11.95;6.07;;;6.70;99.90;;;;;;6246274;23;20028;-81
2023/11/16 13:35:41;;;;;;;11.40;6.10;;;6.80;99.90;;;;;;6223063;23;20032;-82
2023/11/16 13:38:32;;;;;;;17.55;5.05;;;6.80;99.90;;;;;;6247507;23;20020;-82
2023/11/16 13:41:22;;;;;;;11.43;5.53;;;6.90;99.90;;;;;;6247118;23;20028;-81
2023/11/16 13:44:13;;;;;;;15.68;5.13;;;6.80;99.90;;;;;;6223373;23;20120;-82
2023/11/16 13:47:03;;;;;;;9.57;3.80;;;6.80;99.90;;;;;;6247773;23;20032;-81
2023/11/16 13:49:53;;;;;;;12.13;3.58;;;6.70;99.90;;;;;;6246947;23;20032;-82
2023/11/16 13:52:42;;;;;;;9.98;3.15;;;6.60;99.90;;;;;;6247197;23;20024;-82
2023/11/16 13:55:37;;;;;;;9.70;3.13;;;6.60;99.90;;;;;;6249039;23;20362;-81
2023/11/16 13:58:27;;;;;;;9.57;3.63;;;6.50;99.90;;;;;;6247336;23;20070;-83
2023/11/16 14:01:16;;;;;;;10.70;4.15;;;6.50;99.90;;;;;;6248354;23;20103;-84
2023/11/16 14:04:04;;;;;;;5.43;3.13;;;6.50;99.90;;;;;;6249989;23;20024;-84
2023/11/16 14:06:52;;;;;;;5.80;3.35;;;6.40;99.90;;;;;;6250097;23;20035;-82
2023/11/16 14:09:41;;;;;;;12.82;5.00;;;6.40;99.90;;;;;;6245876;23;20103;-82
2023/11/16 14:12:28;;;;;;;8.93;4.35;;;6.40;99.90;;;;;;6224163;23;20638;-81
2023/11/16 14:15:16;;;;;;;15.02;3.55;;;6.40;99.90;;;;;;6251771;23;20080;-79
2023/11/16 14:18:04;;;;;;;10.10;3.55;;;6.30;99.90;;;;;;6254851;23;20086;-79
2023/11/16 14:20:54;;;;;;;9.90;3.10;;;6.30;99.90;;;;;;6255062;23;20028;-80
2023/11/16 14:23:42;;;;;;;13.38;3.28;;;6.30;99.90;;;;;;6258784;23;20107;-80
2023/11/16 14:26:34;;;;;;;10.50;3.60;;;6.30;99.90;;;;;;6260410;23;20052;-79
2023/11/16 14:29:21;;;;;;;16.65;4.15;;;6.30;99.90;;;;;;6261921;23;20081;-78
2023/11/16 14:32:11;;;;;;;10.25;4.35;;;6.30;99.90;;;;;;6240934;22;20044;-80
2023/11/16 14:35:02;;;;;;;16.80;4.78;;;6.30;99.90;;;;;;6262475;23;20027;-79
2023/11/16 14:38:05;;;;;;;11.95;3.85;;;6.20;99.90;;;;;;6258663;23;20024;-76
2023/11/16 14:40:55;;;;;;;8.82;3.67;;;6.10;99.90;;;;;;6258444;23;20023;-80
2023/11/16 14:43:46;;;;;;;8.23;3.70;;;6.00;99.90;;;;;;6250131;23;20020;-80
2023/11/16 14:46:34;;;;;;;7.53;3.78;;;6.00;99.90;;;;;;6243008;23;20291;-81
2023/11/16 14:49:24;;;;;;;13.55;6.15;;;6.00;99.90;;;;;;6244291;23;20028;-81